Time;durP1;ratioP1;P1;durP2;ratioP2;P2;SDS_P1;SDS_P2;PMS_P1;PMS_P2;Temp;Humidity;BMP_temperature;BMP_pressure;BME280_temperature;BME280_humidity;BME280_pressure;Samples;Min_cycle;Max_cycle;Signal;HPM_P1;HPM_P2
2023/01/21 00:01:34;;;;;;;8.73;7.23;;;;;;;9.64;66.98;94014.72;5069514;28;20222;-47
2023/01/21 00:04:00;;;;;;;8.67;7.40;;;;;;;9.64;67.03;94019.84;5070113;28;20189;-49
2023/01/21 00:06:27;;;;;;;9.63;7.73;;;;;;;9.63;67.09;94029.25;5069664;28;20190;-49
2023/01/21 00:08:54;;;;;;;9.27;7.17;;;;;;;9.59;67.13;94024.59;5069445;28;20196;-49
2023/01/21 00:11:21;;;;;;;8.37;6.83;;;;;;;9.57;67.23;94029.81;5069849;28;20189;-49
2023/01/21 00:13:47;;;;;;;9.23;7.77;;;;;;;9.55;67.20;94027.44;5069615;28;20267;-49
2023/01/21 00:16:14;;;;;;;8.37;7.00;;;;;;;9.55;67.18;94032.53;5069940;28;20300;-48
2023/01/21 00:18:42;;;;;;;9.10;7.07;;;;;;;9.54;67.20;94037.75;5069088;28;20190;-51
2023/01/21 00:21:09;;;;;;;8.03;6.63;;;;;;;9.54;67.23;94030.09;5069772;28;20186;-52
2023/01/21 00:23:36;;;;;;;9.20;7.07;;;;;;;9.46;67.22;94012.19;5069166;28;20191;-50
2023/01/21 00:26:05;;;;;;;7.37;6.67;;;;;;;9.49;66.84;94010.13;5069517;28;20761;-48
2023/01/21 00:28:34;;;;;;;8.97;7.53;;;;;;;9.52;67.29;94027.72;5069350;28;20194;-48
2023/01/21 00:31:02;;;;;;;8.73;7.07;;;;;;;9.51;67.30;94032.97;5069749;28;20282;-48
2023/01/21 00:33:29;;;;;;;8.07;7.27;;;;;;;9.50;67.16;94027.06;5068809;28;20182;-50
2023/01/21 00:35:59;;;;;;;9.00;7.27;;;;;;;9.46;67.39;94032.63;5069678;28;20186;-48
2023/01/21 00:38:26;;;;;;;8.60;7.07;;;;;;;9.46;67.36;94030.06;5069249;28;20187;-51
2023/01/21 00:40:53;;;;;;;8.10;6.63;;;;;;;9.43;67.38;94020.94;5069355;28;20228;-48
2023/01/21 00:43:19;;;;;;;7.67;6.73;;;;;;;9.41;67.31;94014.38;5069091;28;20201;-48
2023/01/21 00:45:46;;;;;;;7.90;7.10;;;;;;;9.38;67.18;94025.69;5068955;28;20226;-48
2023/01/21 00:48:13;;;;;;;7.77;7.00;;;;;;;9.39;67.31;94026.50;5069298;28;20189;-51
2023/01/21 00:50:39;;;;;;;7.77;6.53;;;;;;;9.39;67.13;94018.84;5068908;28;20550;-49
2023/01/21 00:53:08;;;;;;;7.97;7.17;;;;;;;9.39;67.25;94017.09;5068908;28;20190;-48
2023/01/21 00:55:34;;;;;;;7.87;6.93;;;;;;;9.40;67.10;94015.31;5068914;28;20643;-48
2023/01/21 00:58:01;;;;;;;7.60;6.80;;;;;;;9.26;67.02;93999.59;5069188;28;20194;-49
2023/01/21 01:00:28;;;;;;;8.13;7.00;;;;;;;9.34;67.25;94011.63;5068804;28;20631;-46
2023/01/21 01:02:55;;;;;;;7.97;7.20;;;;;;;8.83;67.15;93940.88;5082380;28;20205;-50
2023/01/21 01:05:23;;;;;;;8.13;7.30;;;;;;;9.34;67.19;94039.69;5088886;28;20217;-47
2023/01/21 01:07:50;;;;;;;7.70;6.83;;;;;;;9.35;67.30;94028.53;5089062;28;20194;-48
2023/01/21 01:10:18;;;;;;;7.83;6.70;;;;;;;9.35;67.20;94028.53;5089096;28;20271;-47
2023/01/21 01:12:45;;;;;;;7.77;6.97;;;;;;;9.37;67.04;94028.38;5088992;28;20200;-49
2023/01/21 01:15:12;;;;;;;7.50;6.43;;;;;;;9.37;67.22;94021.53;5089074;28;20732;-47
2023/01/21 01:17:38;;;;;;;8.67;6.67;;;;;;;9.37;67.08;94020.72;5089163;28;20655;-48
2023/01/21 01:20:07;;;;;;;9.10;7.47;;;;;;;9.36;67.07;94032.69;5089082;28;20288;-47
2023/01/21 01:22:33;;;;;;;7.23;6.53;;;;;;;9.38;67.11;94032.53;5088605;28;20193;-47
2023/01/21 01:25:00;;;;;;;7.80;6.93;;;;;;;9.29;67.20;94016.38;5088960;28;20266;-46
2023/01/21 01:27:29;;;;;;;7.10;6.37;;;;;;;9.35;67.07;94013.22;5088681;28;20186;-47
2023/01/21 01:29:56;;;;;;;9.20;7.40;;;;;;;9.38;67.18;94007.81;5088994;28;20356;-47
2023/01/21 01:32:23;;;;;;;7.37;6.67;;;;;;;9.39;67.13;94009.44;5089130;28;20185;-47
2023/01/21 01:34:49;;;;;;;8.70;7.57;;;;;;;9.40;67.11;94012.78;5088833;28;20604;-48
2023/01/21 01:37:16;;;;;;;7.57;6.70;;;;;;;9.42;67.07;94014.25;5088986;28;20185;-52
2023/01/21 01:39:43;;;;;;;7.37;6.17;;;;;;;9.43;67.13;94003.06;5088852;28;20189;-48
2023/01/21 01:42:14;;;;;;;7.97;6.93;;;;;;;9.45;67.01;93995.25;5088645;28;20268;-50
2023/01/21 01:45:00;;;;;;;10.10;7.33;;;;;;;9.43;66.89;93990.31;5089203;28;20193;-47
2023/01/21 01:47:36;;;;;;;7.80;6.67;;;;;;;9.43;67.07;93985.22;5092475;28;20728;-48
2023/01/21 01:50:04;;;;;;;8.13;6.87;;;;;;;9.44;66.86;93978.34;5092667;28;20186;-46
2023/01/21 01:52:31;;;;;;;8.17;6.80;;;;;;;9.44;66.86;93979.16;5092437;28;20190;-46
2023/01/21 01:55:00;;;;;;;7.37;6.57;;;;;;;9.42;66.80;93970.88;5092969;28;20197;-48
2023/01/21 01:57:34;;;;;;;7.50;6.80;;;;;;;9.44;66.99;93970.69;5092502;28;20615;-47
2023/01/21 02:00:06;;;;;;;8.37;7.17;;;;;;;9.43;66.97;93962.25;5092485;28;20186;-46
2023/01/21 02:02:34;;;;;;;7.07;6.37;;;;;;;9.44;66.94;93960.50;5092217;28;20194;-46
2023/01/21 02:05:05;;;;;;;6.80;6.10;;;;;;;9.42;66.84;93958.09;5092313;28;20328;-47
2023/01/21 02:07:38;;;;;;;6.43;5.77;;;;;;;9.41;67.11;93966.72;5092402;28;20246;-48
2023/01/21 02:10:07;;;;;;;6.97;6.27;;;;;;;9.38;66.94;93966.19;5092302;28;20618;-44
2023/01/21 02:12:34;;;;;;;7.93;6.23;;;;;;;9.38;66.87;93948.34;5092215;28;20193;-47
2023/01/21 02:15:04;;;;;;;6.90;6.13;;;;;;;9.38;66.85;93950.91;5092105;28;20201;-47
2023/01/21 02:17:46;;;;;;;6.77;5.87;;;;;;;9.35;67.10;93933.31;5092243;28;20353;-50
2023/01/21 02:20:43;;;;;;;6.43;5.80;;;;;;;9.36;66.91;93943.38;5092581;28;20201;-49
2023/01/21 02:23:17;;;;;;;7.03;5.90;;;;;;;9.32;67.09;93942.06;5092303;28;20193;-51
2023/01/21 02:26:18;;;;;;;7.07;6.37;;;;;;;9.31;66.87;93940.47;5091497;28;20217;-50
2023/01/21 02:29:19;;;;;;;9.27;6.00;;;;;;;9.28;67.22;93925.44;5091914;28;20693;-47
2023/01/21 02:32:21;;;;;;;6.83;6.10;;;;;;;9.26;67.32;93925.59;5080969;28;20196;-53
2023/01/21 02:34:56;;;;;;;7.43;6.03;;;;;;;9.23;67.27;93910.59;5071379;28;20190;-47
2023/01/21 02:37:31;;;;;;;7.77;6.60;;;;;;;9.22;67.41;93934.50;5071469;28;20225;-46
2023/01/21 02:40:10;;;;;;;7.27;5.73;;;;;;;9.22;67.33;93903.91;5071623;28;20185;-48
2023/01/21 02:42:44;;;;;;;6.93;6.27;;;;;;;9.22;67.38;93916.66;5071573;28;20197;-47
2023/01/21 02:45:20;;;;;;;6.47;5.87;;;;;;;9.22;67.12;93913.31;5071313;28;20224;-47
2023/01/21 02:47:54;;;;;;;6.97;6.10;;;;;;;9.22;67.23;93913.31;5071380;28;20251;-50
2023/01/21 02:50:26;;;;;;;7.10;6.00;;;;;;;9.22;67.07;93923.50;5071420;28;20198;-49
2023/01/21 02:52:57;;;;;;;6.20;5.60;;;;;;;9.19;67.42;93916.13;5071042;28;20652;-49
2023/01/21 02:55:28;;;;;;;7.20;6.13;;;;;;;9.21;67.18;93915.06;5071504;28;20201;-48
2023/01/21 02:57:58;;;;;;;8.67;6.30;;;;;;;9.19;67.31;93911.03;5070613;28;20193;-47
2023/01/21 03:00:28;;;;;;;5.87;5.33;;;;;;;9.20;67.15;93897.34;5071006;28;20765;-48
2023/01/21 03:03:21;;;;;;;6.23;5.63;;;;;;;9.20;67.38;93900.72;5070905;28;20263;-50
2023/01/21 03:06:06;;;;;;;6.87;6.17;;;;;;;9.20;67.07;93890.50;5070855;28;20312;-48
2023/01/21 03:08:41;;;;;;;6.20;5.60;;;;;;;9.21;67.12;93893.84;5071348;28;20184;-47
2023/01/21 03:11:14;;;;;;;6.20;5.57;;;;;;;9.19;67.15;93885.53;5070658;28;20273;-48
2023/01/21 03:19:25;;;;;;;5.83;5.33;;;;;;;9.20;67.21;93884.59;5070490;28;20213;-49
2023/01/21 03:21:55;;;;;;;6.63;6.00;;;;;;;9.20;67.33;93880.31;5070569;28;20190;-46
2023/01/21 03:24:23;;;;;;;7.17;6.47;;;;;;;9.18;67.40;93874.53;5070415;28;20259;-47
2023/01/21 03:26:52;;;;;;;5.97;5.37;;;;;;;9.03;67.45;93850.53;5070591;28;20206;-46
2023/01/21 03:29:23;;;;;;;6.03;5.43;;;;;;;9.18;67.33;93871.19;5070640;28;20227;-47
2023/01/21 03:31:56;;;;;;;5.87;5.37;;;;;;;9.16;67.46;93868.00;5070546;28;20628;-49
2023/01/21 03:34:26;;;;;;;6.13;5.53;;;;;;;9.12;67.50;93862.38;5070431;28;20193;-48
2023/01/21 03:37:00;;;;;;;5.97;5.37;;;;;;;9.11;67.47;93848.03;5070266;28;20190;-49
2023/01/21 03:39:32;;;;;;;9.03;6.10;;;;;;;9.05;67.65;93848.63;5070543;28;20200;-51
2023/01/21 03:42:00;;;;;;;6.63;5.80;;;;;;;9.07;67.67;93845.91;5070427;28;20185;-50
2023/01/21 03:44:27;;;;;;;6.93;5.60;;;;;;;9.05;67.59;93857.06;5070271;28;20190;-46
2023/01/21 03:47:02;;;;;;;6.17;5.57;;;;;;;9.03;67.53;93840.34;5070913;28;20213;-48
2023/01/21 03:49:34;;;;;;;6.83;6.20;;;;;;;8.99;67.64;93850.03;5071570;28;20189;-49
2023/01/21 03:52:05;;;;;;;6.23;5.60;;;;;;;8.90;67.62;93847.56;5071527;28;20186;-51
2023/01/21 03:54:33;;;;;;;7.37;5.47;;;;;;;8.94;67.71;93853.97;5069969;28;20190;-47
2023/01/21 03:56:59;;;;;;;5.70;5.10;;;;;;;8.90;67.76;93842.47;5070093;28;20190;-46
2023/01/21 03:59:26;;;;;;;6.47;5.67;;;;;;;8.79;67.47;93828.19;5070095;28;20197;-48
2023/01/21 04:01:53;;;;;;;6.10;5.50;;;;;;;8.82;67.79;93837.31;5069826;28;20272;-49
2023/01/21 04:04:20;;;;;;;6.23;5.43;;;;;;;8.78;67.83;93860.53;5069693;28;20248;-50
2023/01/21 04:06:46;;;;;;;5.43;4.90;;;;;;;8.80;67.75;93855.28;5070059;28;20206;-47
2023/01/21 04:09:15;;;;;;;5.27;4.63;;;;;;;8.79;67.84;93840.94;5068710;28;20656;-46
2023/01/21 04:11:41;;;;;;;5.30;4.80;;;;;;;8.79;67.81;93846.84;5069946;28;20198;-46
2023/01/21 04:14:08;;;;;;;5.47;4.90;;;;;;;8.54;67.56;93812.72;5069610;28;20190;-51
2023/01/21 04:16:35;;;;;;;5.87;5.33;;;;;;;8.77;67.94;93845.41;5069654;28;20205;-49
2023/01/21 04:19:02;;;;;;;6.23;5.00;;;;;;;8.76;67.79;93824.22;5069366;28;20658;-51
2023/01/21 04:21:29;;;;;;;5.80;5.30;;;;;;;8.76;67.80;93805.53;5069699;28;20261;-50
2023/01/21 04:23:56;;;;;;;5.93;5.43;;;;;;;8.74;67.86;93805.69;5069566;28;20232;-50
2023/01/21 04:26:24;;;;;;;5.90;5.30;;;;;;;8.78;67.89;93824.06;5069250;28;20225;-48
2023/01/21 04:28:50;;;;;;;7.90;5.63;;;;;;;8.78;67.68;93839.34;5069283;28;20194;-47
2023/01/21 04:31:17;;;;;;;5.57;5.07;;;;;;;8.79;67.64;93840.94;5069564;28;20461;-48
2023/01/21 04:33:44;;;;;;;6.37;5.10;;;;;;;8.78;67.75;93849.53;5069229;28;20195;-50
2023/01/21 04:36:11;;;;;;;6.80;5.60;;;;;;;8.78;67.87;93845.25;5069436;28;20624;-47
2023/01/21 04:38:38;;;;;;;6.57;5.87;;;;;;;8.75;67.61;93835.34;5070068;28;20637;-47
2023/01/21 04:41:04;;;;;;;6.67;5.30;;;;;;;8.78;67.69;93864.84;5069178;28;20201;-48
2023/01/21 04:43:33;;;;;;;5.53;4.80;;;;;;;8.78;67.84;93875.03;5069516;28;20252;-47
2023/01/21 04:45:59;;;;;;;6.13;4.70;;;;;;;8.80;67.81;93881.56;5068946;28;20222;-48
2023/01/21 04:48:26;;;;;;;6.23;5.53;;;;;;;8.80;67.74;93876.47;5069418;28;20196;-50
2023/01/21 04:50:53;;;;;;;6.90;4.93;;;;;;;8.79;67.78;93886.81;5072814;28;20198;-54
2023/01/21 04:53:20;;;;;;;6.80;6.10;;;;;;;8.34;67.74;93798.53;5072826;28;20561;-49
2023/01/21 04:55:46;;;;;;;6.37;5.77;;;;;;;8.76;67.85;93875.19;5071305;28;20193;-48
2023/01/21 04:58:13;;;;;;;6.17;5.50;;;;;;;8.78;67.79;93875.03;5068790;28;20263;-47
2023/01/21 05:00:41;;;;;;;6.87;5.47;;;;;;;8.76;67.73;93872.66;5068907;28;20230;-51
2023/01/21 05:03:08;;;;;;;5.80;5.30;;;;;;;8.78;67.69;93880.13;5068350;28;20574;-48
2023/01/21 05:05:35;;;;;;;6.00;5.40;;;;;;;8.79;67.72;93895.28;5069008;28;20238;-47
2023/01/21 05:08:01;;;;;;;8.83;5.63;;;;;;;8.80;67.69;93886.66;5068028;28;20216;-49
2023/01/21 05:10:28;;;;;;;8.07;5.97;;;;;;;8.82;67.77;93893.41;5068972;28;20197;-48
2023/01/21 05:12:55;;;;;;;5.90;5.30;;;;;;;8.79;67.71;93908.03;5068614;28;20190;-51
2023/01/21 05:15:22;;;;;;;6.53;5.83;;;;;;;8.82;67.70;93914.59;5068434;28;20668;-54
2023/01/21 05:17:50;;;;;;;7.13;6.07;;;;;;;8.83;67.76;93911.09;5068566;28;20194;-47
2023/01/21 05:20:17;;;;;;;6.53;5.93;;;;;;;8.83;67.79;93907.75;5070491;28;20651;-47
2023/01/21 05:22:45;;;;;;;6.90;6.30;;;;;;;8.83;67.75;93905.19;5072291;28;20190;-47
2023/01/21 05:25:12;;;;;;;6.17;5.57;;;;;;;8.80;67.70;93899.41;5072563;28;20210;-52
2023/01/21 05:27:39;;;;;;;7.93;6.03;;;;;;;8.78;67.87;93898.78;5072355;28;20229;-48
2023/01/21 05:30:07;;;;;;;7.43;6.30;;;;;;;8.75;67.91;93905.91;5072107;28;20194;-47
2023/01/21 05:32:35;;;;;;;6.07;5.47;;;;;;;8.76;67.68;93926.19;5072934;28;20191;-48
2023/01/21 05:35:03;;;;;;;6.23;5.70;;;;;;;8.75;67.68;93918.66;5072901;28;20189;-47
2023/01/21 05:37:30;;;;;;;8.43;6.70;;;;;;;8.72;67.94;93914.66;5073222;28;20209;-48
2023/01/21 05:39:57;;;;;;;7.20;6.50;;;;;;;8.71;67.91;93918.13;5072368;28;20734;-47
2023/01/21 05:42:24;;;;;;;7.17;6.47;;;;;;;8.71;67.91;93923.22;5072862;28;20205;-47
2023/01/21 05:44:50;;;;;;;7.53;6.57;;;;;;;8.69;67.99;93937.88;5072584;28;20190;-48
2023/01/21 05:47:17;;;;;;;6.80;6.10;;;;;;;8.67;67.88;93924.47;5072097;28;20960;-49
2023/01/21 05:49:44;;;;;;;8.30;6.37;;;;;;;8.67;67.98;93942.31;5072195;28;20232;-50
2023/01/21 05:52:12;;;;;;;7.87;7.07;;;;;;;8.66;68.00;93940.72;5072092;28;20196;-47
2023/01/21 05:54:39;;;;;;;7.57;6.87;;;;;;;8.65;67.89;93928.94;5072154;28;20691;-49
2023/01/21 05:57:06;;;;;;;6.93;6.30;;;;;;;8.65;67.97;93925.59;5071900;28;20197;-49
2023/01/21 05:59:32;;;;;;;6.63;6.03;;;;;;;8.59;67.95;93911.66;5072448;28;20187;-47
2023/01/21 06:01:59;;;;;;;6.97;6.20;;;;;;;8.64;68.01;93922.22;5071530;28;20222;-47
2023/01/21 06:04:29;;;;;;;7.43;6.23;;;;;;;8.60;67.91;93903.09;5072539;28;20190;-48
2023/01/21 06:06:56;;;;;;;7.03;6.23;;;;;;;8.63;68.02;93918.06;5071824;28;20337;-47
2023/01/21 06:09:24;;;;;;;8.13;6.40;;;;;;;8.63;68.01;93917.25;5072389;28;20413;-48
2023/01/21 06:11:51;;;;;;;8.53;7.07;;;;;;;8.64;68.00;93913.78;5071942;28;20822;-47
2023/01/21 06:14:17;;;;;;;8.17;6.80;;;;;;;8.64;67.96;93916.34;5072036;28;20194;-48
2023/01/21 06:16:44;;;;;;;7.60;6.70;;;;;;;8.63;68.18;93920.59;5071818;28;20206;-50
2023/01/21 06:19:11;;;;;;;7.57;6.77;;;;;;;8.64;67.91;93924.78;5072046;28;20691;-46
2023/01/21 06:21:38;;;;;;;8.63;7.20;;;;;;;8.62;67.98;93930.97;5071749;28;20701;-49
2023/01/21 06:24:05;;;;;;;9.27;7.77;;;;;;;8.61;68.00;93931.91;5072346;28;20187;-46
2023/01/21 06:26:34;;;;;;;7.13;6.47;;;;;;;8.64;67.92;93926.53;5071668;28;20221;-47
2023/01/21 06:29:00;;;;;;;8.27;6.37;;;;;;;8.63;68.09;93922.34;5071833;28;20194;-47
2023/01/21 06:31:27;;;;;;;9.13;7.63;;;;;;;8.68;68.00;93920.16;5069761;28;20186;-48
2023/01/21 06:33:54;;;;;;;9.37;7.07;;;;;;;8.76;67.94;93930.44;5071958;28;20190;-49
2023/01/21 06:36:21;;;;;;;8.80;7.57;;;;;;;8.91;67.59;93938.41;5071306;28;20187;-47
2023/01/21 06:38:47;;;;;;;7.93;6.83;;;;;;;9.06;67.40;93942.03;5071539;28;20190;-46
2023/01/21 06:41:14;;;;;;;8.17;7.33;;;;;;;9.24;67.14;93954.75;5071524;28;20190;-48
2023/01/21 06:43:42;;;;;;;7.40;6.67;;;;;;;9.48;66.62;93947.28;5071501;28;20190;-46
2023/01/21 06:46:10;;;;;;;9.07;8.10;;;;;;;9.75;66.08;93942.97;5070916;28;20202;-47
2023/01/21 06:48:36;;;;;;;9.37;7.17;;;;;;;9.92;65.93;93954.88;5071251;28;20660;-48
2023/01/21 06:51:04;;;;;;;10.47;7.83;;;;;;;9.95;65.83;93949.47;5071219;28;20224;-48
2023/01/21 06:53:30;;;;;;;12.23;7.73;;;;;;;10.14;65.89;93957.88;5071337;28;20190;-47
2023/01/21 06:55:57;;;;;;;8.77;7.67;;;;;;;10.21;65.58;93951.19;5070851;28;20201;-47
2023/01/21 06:58:24;;;;;;;9.57;8.53;;;;;;;10.39;65.41;93976.69;5071129;28;20187;-45
2023/01/21 07:00:55;;;;;;;11.00;8.03;;;;;;;10.47;65.63;93980.06;5070255;28;20763;-48
2023/01/21 07:03:22;;;;;;;9.40;8.03;;;;;;;10.65;64.94;93982.53;5070709;28;20205;-47
2023/01/21 07:05:48;;;;;;;9.97;8.73;;;;;;;10.77;64.71;93980.47;5070973;28;20179;-45
2023/01/21 07:08:15;;;;;;;10.50;9.03;;;;;;;10.98;64.30;93962.16;5070918;28;20222;-47
2023/01/21 07:10:42;;;;;;;9.17;8.27;;;;;;;11.20;64.13;93968.41;5071277;28;20220;-49
2023/01/21 07:13:09;;;;;;;9.67;8.37;;;;;;;11.42;63.92;93966.97;5070869;28;20194;-47
2023/01/21 07:15:35;;;;;;;10.87;8.60;;;;;;;11.63;63.85;93972.38;5070357;28;20668;-49
2023/01/21 07:18:04;;;;;;;9.57;8.53;;;;;;;12.06;63.45;93970.41;5070648;28;20190;-49
2023/01/21 07:20:31;;;;;;;11.80;8.73;;;;;;;12.60;63.81;93972.28;5070296;28;20191;-47
2023/01/21 07:22:58;;;;;;;11.13;8.83;;;;;;;13.14;63.82;93964.63;5071040;28;20178;-45
2023/01/21 07:25:25;;;;;;;10.80;8.10;;;;;;;13.71;63.51;93970.13;5059212;28;20187;-45
2023/01/21 07:27:52;;;;;;;10.27;8.53;;;;;;;14.08;63.04;93937.66;5051048;28;20246;-45
2023/01/21 07:30:20;;;;;;;11.30;9.03;;;;;;;14.86;62.19;93967.13;5050775;28;20192;-44
2023/01/21 07:32:47;;;;;;;10.60;8.77;;;;;;;15.37;61.43;93963.63;5052461;28;20195;-46
2023/01/21 07:35:16;;;;;;;9.87;8.57;;;;;;;15.85;60.71;93958.72;5052708;28;20222;-54
2023/01/21 07:37:43;;;;;;;10.13;8.17;;;;;;;16.33;59.89;93948.47;5065959;28;20194;-53
2023/01/21 07:40:11;;;;;;;9.20;7.30;;;;;;;16.82;58.93;93956.03;5072476;28;20198;-52
2023/01/21 07:42:37;;;;;;;8.57;7.60;;;;;;;17.29;58.13;93947.41;5076732;28;20575;-50
2023/01/21 07:45:05;;;;;;;8.97;7.83;;;;;;;17.78;57.23;93942.88;5081293;28;20208;-48
2023/01/21 07:47:32;;;;;;;8.80;7.93;;;;;;;18.23;56.58;93954.16;5070618;28;20635;-49
2023/01/21 07:50:03;;;;;;;9.87;8.40;;;;;;;18.68;55.76;93961.19;5070092;28;20540;-49
2023/01/21 07:52:31;;;;;;;9.43;7.33;;;;;;;19.08;55.03;93963.63;5054085;28;20846;-47
2023/01/21 07:54:58;;;;;;;8.83;7.93;;;;;;;19.44;54.41;93956.03;5068048;28;20199;-48
2023/01/21 07:57:25;;;;;;;8.27;6.60;;;;;;;19.73;53.66;93940.88;5067704;28;20190;-50
2023/01/21 07:59:52;;;;;;;7.70;6.93;;;;;;;20.08;53.04;93940.34;5068131;28;20205;-48
2023/01/21 08:02:18;;;;;;;11.37;8.40;;;;;;;20.26;52.68;93948.97;5067490;28;20194;-47
2023/01/21 08:04:45;;;;;;;8.33;7.37;;;;;;;20.24;52.43;93943.19;5067654;28;20190;-48
2023/01/21 08:07:12;;;;;;;8.40;7.23;;;;;;;20.07;52.85;93928.38;5067619;28;20571;-48
2023/01/21 08:09:40;;;;;;;8.33;7.03;;;;;;;19.93;52.92;93932.91;5069097;28;20595;-48
2023/01/21 08:12:08;;;;;;;9.30;7.50;;;;;;;19.74;53.09;93961.44;5067819;28;20205;-48
2023/01/21 08:14:37;;;;;;;8.07;7.27;;;;;;;19.65;53.09;93973.06;5068044;28;20186;-47
2023/01/21 08:17:04;;;;;;;8.47;7.63;;;;;;;19.56;52.77;93971.72;5067900;28;20260;-54
2023/01/21 08:19:31;;;;;;;9.13;7.57;;;;;;;19.41;52.32;93963.44;5067695;28;20191;-49
2023/01/21 08:21:58;;;;;;;8.50;7.37;;;;;;;19.21;52.46;93966.13;5067185;28;20202;-46
2023/01/21 08:24:25;;;;;;;9.27;8.10;;;;;;;19.28;51.86;93972.88;5067045;28;20198;-49
2023/01/21 08:26:53;;;;;;;8.83;7.80;;;;;;;19.41;50.90;93964.22;5066851;28;20198;-47
2023/01/21 08:29:19;;;;;;;7.53;6.60;;;;;;;19.37;50.41;93967.44;5066772;28;20202;-47
2023/01/21 08:31:46;;;;;;;7.57;6.80;;;;;;;19.32;50.18;93972.47;5066664;28;20190;-47
2023/01/21 08:34:15;;;;;;;8.73;7.20;;;;;;;19.04;50.58;93978.78;5066404;28;20202;-47
2023/01/21 08:36:41;;;;;;;7.07;6.37;;;;;;;18.63;51.04;93961.00;5067132;28;20193;-47
2023/01/21 08:39:09;;;;;;;7.23;6.03;;;;;;;18.46;51.15;93978.78;5067174;28;20194;-48
2023/01/21 08:41:36;;;;;;;7.10;6.30;;;;;;;18.25;51.45;93974.66;5067405;28;20213;-47
2023/01/21 08:44:04;;;;;;;7.07;5.70;;;;;;;18.05;51.50;93972.91;5066811;28;20186;-48
2023/01/21 08:46:31;;;;;;;6.30;5.70;;;;;;;17.86;51.54;93970.31;5067228;28;20195;-48
2023/01/21 08:48:58;;;;;;;6.77;6.07;;;;;;;17.82;51.53;93990.63;5066581;28;20222;-48
2023/01/21 08:51:25;;;;;;;6.73;5.70;;;;;;;17.73;51.62;93984.81;5066574;28;20683;-47
2023/01/21 08:53:52;;;;;;;6.07;5.47;;;;;;;17.77;51.38;93990.41;5066299;28;20182;-49
2023/01/21 08:56:19;;;;;;;7.10;5.50;;;;;;;17.69;51.49;93985.41;5066580;28;20191;-48
2023/01/21 08:58:46;;;;;;;6.20;5.07;;;;;;;17.59;51.57;93987.59;5067142;28;20190;-50
2023/01/21 09:01:15;;;;;;;6.20;5.10;;;;;;;17.50;51.62;93981.84;5066434;28;20226;-49
2023/01/21 09:03:42;;;;;;;5.10;4.60;;;;;;;17.41;51.72;93975.25;5066914;28;20213;-48
2023/01/21 09:06:11;;;;;;;5.73;5.17;;;;;;;17.33;51.76;93973.66;5066661;28;20194;-48
2023/01/21 09:08:39;;;;;;;6.30;4.80;;;;;;;17.29;52.26;93973.25;5066544;28;20225;-47
2023/01/21 09:11:08;;;;;;;4.60;4.20;;;;;;;17.27;52.92;93975.25;5066379;28;20186;-48
2023/01/21 09:13:37;;;;;;;7.40;4.37;;;;;;;17.28;53.54;93968.28;5066420;28;20194;-47
2023/01/21 09:16:08;;;;;;;4.83;3.90;;;;;;;17.25;53.87;93961.72;5066120;28;20218;-48
2023/01/21 09:18:36;;;;;;;4.27;3.80;;;;;;;17.29;53.94;93970.66;5066710;28;20190;-47
2023/01/21 09:21:05;;;;;;;5.67;3.63;;;;;;;17.33;54.04;93957.34;5066701;28;20186;-48
2023/01/21 09:23:33;;;;;;;4.47;4.00;;;;;;;17.37;53.76;93959.34;5066499;28;20183;-45
2023/01/21 09:26:06;;;;;;;4.93;3.30;;;;;;;17.53;64.18;93964.16;5058137;28;20183;-44
2023/01/21 09:28:34;;;;;;;6.07;2.83;;;;;;;17.90;67.65;93956.00;5059727;28;20637;-47
2023/01/21 09:31:05;;;;;;;3.20;2.70;;;;;;;18.21;65.92;93961.31;5060411;28;20237;-48
2023/01/21 09:33:33;;;;;;;6.57;2.97;;;;;;;18.26;64.12;93973.66;5066199;28;20205;-48
2023/01/21 09:36:03;;;;;;;6.47;2.80;;;;;;;18.19;62.45;93949.59;5066455;28;20575;-46
2023/01/21 09:38:30;;;;;;;4.37;3.03;;;;;;;18.14;61.41;93933.88;5066567;28;20186;-46
2023/01/21 09:41:04;;;;;;;4.17;2.50;;;;;;;18.03;60.51;93938.66;5065930;28;20190;-47
2023/01/21 09:43:37;;;;;;;4.80;2.83;;;;;;;17.96;59.78;93940.50;5046560;28;20241;-47
2023/01/21 09:46:07;;;;;;;5.47;3.00;;;;;;;17.81;59.02;93939.88;5056564;28;20183;-47
2023/01/21 09:48:38;;;;;;;5.00;2.97;;;;;;;17.68;58.40;93942.47;5056706;28;20985;-48
2023/01/21 09:51:15;;;;;;;5.83;3.03;;;;;;;17.54;57.89;93941.66;5056811;28;20190;-50
2023/01/21 09:53:49;;;;;;;2.90;2.70;;;;;;;17.42;57.50;93938.06;5059794;28;20714;-47
2023/01/21 09:56:24;;;;;;;3.30;2.97;;;;;;;17.15;57.24;93904.47;5057339;28;20183;-47
2023/01/21 09:59:00;;;;;;;2.83;2.63;;;;;;;17.16;56.79;93920.75;5057114;28;20315;-50
2023/01/21 10:01:32;;;;;;;3.37;2.67;;;;;;;17.12;56.54;93917.78;5059813;28;20248;-46
2023/01/21 10:04:06;;;;;;;3.37;2.40;;;;;;;16.99;56.39;93917.75;5055282;28;20194;-48
2023/01/21 10:06:41;;;;;;;4.50;2.77;;;;;;;16.84;56.18;93901.59;5066855;28;20175;-47
2023/01/21 10:09:32;;;;;;;4.30;2.50;;;;;;;16.75;55.83;93913.91;5072077;28;20312;-48
2023/01/21 10:12:27;;;;;;;3.43;2.70;;;;;;;16.64;55.68;93914.44;5069500;28;20197;-48
2023/01/21 10:15:12;;;;;;;2.50;2.30;;;;;;;16.54;55.45;93918.19;5052535;28;20191;-49
2023/01/21 10:17:50;;;;;;;4.00;2.70;;;;;;;16.44;55.38;93907.41;5051779;28;20198;-47
2023/01/21 10:20:22;;;;;;;2.90;2.70;;;;;;;16.30;55.21;93900.63;5051969;28;20668;-47
2023/01/21 10:22:57;;;;;;;8.07;3.17;;;;;;;16.35;55.35;93921.47;5052003;28;20194;-47
2023/01/21 10:25:29;;;;;;;3.87;2.30;;;;;;;16.30;55.04;93916.91;5052578;28;20198;-49
2023/01/21 10:27:57;;;;;;;2.57;2.40;;;;;;;16.29;54.99;93919.69;5054153;28;20222;-48
2023/01/21 10:30:26;;;;;;;2.60;2.40;;;;;;;16.25;54.78;93921.84;5054553;28;20195;-48
2023/01/21 10:32:55;;;;;;;3.73;2.50;;;;;;;16.23;54.71;93925.59;5063052;28;20852;-48
2023/01/21 10:35:33;;;;;;;3.17;2.30;;;;;;;16.22;54.63;93913.69;5061784;28;20187;-49
2023/01/21 10:38:09;;;;;;;2.40;2.20;;;;;;;16.19;54.58;93901.97;5070266;28;20197;-48
2023/01/21 10:40:44;;;;;;;3.07;2.77;;;;;;;16.18;54.36;93899.56;5068146;28;20197;-47
2023/01/21 10:43:19;;;;;;;2.60;2.40;;;;;;;16.18;54.46;93886.66;5071209;28;20702;-47
2023/01/21 10:45:55;;;;;;;2.80;2.60;;;;;;;16.18;54.35;93886.66;5067747;28;20186;-49
2023/01/21 10:48:31;;;;;;;2.60;2.40;;;;;;;16.17;54.34;93875.56;5070465;28;20228;-48
2023/01/21 10:51:04;;;;;;;2.07;1.97;;;;;;;16.15;54.12;93879.31;5071234;28;20194;-47
2023/01/21 10:53:37;;;;;;;2.30;2.10;;;;;;;16.13;53.94;93879.50;5071275;28;20191;-49
2023/01/21 10:56:15;;;;;;;2.47;2.27;;;;;;;16.12;54.02;93877.91;5071235;28;20194;-47
2023/01/21 10:58:47;;;;;;;2.87;2.30;;;;;;;16.11;53.90;93888.44;5071370;28;20198;-49
2023/01/21 11:01:20;;;;;;;2.77;2.30;;;;;;;16.08;53.80;93863.81;5070712;28;20633;-47
2023/01/21 11:03:49;;;;;;;3.10;2.33;;;;;;;16.10;53.74;93863.63;5071599;28;20280;-48
2023/01/21 11:06:18;;;;;;;2.60;2.40;;;;;;;16.03;53.60;93859.25;5070647;28;20187;-48
2023/01/21 11:08:51;;;;;;;3.10;2.20;;;;;;;16.05;53.87;93856.44;5070924;28;20852;-46
2023/01/21 11:11:26;;;;;;;3.00;2.20;;;;;;;16.03;53.59;93842.97;5070634;28;20194;-48
2023/01/21 11:13:53;;;;;;;2.27;2.13;;;;;;;16.03;53.47;93856.66;5070747;28;20280;-50
2023/01/21 11:16:32;;;;;;;2.67;2.47;;;;;;;16.02;53.25;93860.22;5070618;28;20256;-48
2023/01/21 11:18:59;;;;;;;2.97;2.33;;;;;;;16.00;53.29;93872.50;5070020;28;20236;-47
2023/01/21 11:21:26;;;;;;;5.60;2.10;;;;;;;15.97;53.38;93874.66;5070305;28;20198;-47
2023/01/21 11:23:56;;;;;;;2.67;2.20;;;;;;;15.82;53.30;93856.75;5070784;28;20572;-50
2023/01/21 11:26:26;;;;;;;2.63;2.43;;;;;;;16.08;53.16;93875.91;5070376;28;20187;-49
2023/01/21 11:29:14;;;;;;;3.30;2.50;;;;;;;16.20;53.06;93876.97;5071135;28;20292;-48
2023/01/21 11:31:43;;;;;;;2.93;2.60;;;;;;;16.29;52.98;93874.03;5070379;28;20660;-47
2023/01/21 11:34:14;;;;;;;2.60;2.40;;;;;;;16.22;52.49;93847.41;5070824;28;20193;-48
2023/01/21 11:37:01;;;;;;;4.00;2.27;;;;;;;16.55;52.45;93870.75;5070556;28;20187;-47
2023/01/21 11:39:31;;;;;;;4.27;2.20;;;;;;;16.72;52.15;93873.78;5070157;28;20198;-48
2023/01/21 11:42:02;;;;;;;2.40;2.20;;;;;;;16.85;52.12;93887.72;5070392;28;20657;-49
2023/01/21 11:44:29;;;;;;;2.30;2.10;;;;;;;16.84;52.03;93874.03;5070073;28;20679;-46
2023/01/21 11:46:56;;;;;;;2.00;1.90;;;;;;;16.82;52.17;93867.44;5070690;28;20182;-49
2023/01/21 11:49:29;;;;;;;2.03;1.90;;;;;;;16.80;52.18;93868.44;5070030;28;20226;-47
2023/01/21 11:52:20;;;;;;;3.07;2.30;;;;;;;16.34;52.39;93803.00;5070606;28;20204;-46
2023/01/21 11:54:48;;;;;;;2.40;2.20;;;;;;;16.72;52.41;93862.66;5069926;28;20195;-51